createdAt,value
2019-02-17T00:00:38.194Z,12.87
2019-02-17T00:03:06.833Z,16.60
2019-02-17T00:05:35.226Z,12.13
2019-02-17T00:08:03.637Z,15.13
2019-02-17T00:10:32.050Z,13.57
2019-02-17T00:13:00.550Z,16.63
2019-02-17T00:15:28.942Z,13.80
2019-02-17T00:17:57.370Z,14.50
2019-02-17T00:20:25.795Z,16.17
2019-02-17T00:22:54.230Z,16.83
2019-02-17T00:25:22.651Z,17.30
2019-02-17T00:27:51.041Z,15.63
2019-02-17T00:30:19.446Z,18.23
2019-02-17T00:32:47.886Z,17.03
2019-02-17T00:35:16.281Z,17.33
2019-02-17T00:37:44.707Z,18.63
2019-02-17T00:40:13.152Z,16.70
2019-02-17T00:42:41.575Z,15.17
2019-02-17T00:45:09.975Z,17.67
2019-02-17T00:47:38.374Z,18.10
2019-02-17T00:50:09.412Z,14.83
2019-02-17T00:52:37.819Z,16.30
2019-02-17T00:55:07.347Z,16.83
2019-02-17T00:57:35.771Z,13.37
2019-02-17T01:00:07.322Z,18.53
2019-02-17T01:02:35.725Z,21.53
2019-02-17T01:05:05.274Z,16.93
2019-02-17T01:07:33.702Z,18.63
2019-02-17T01:10:02.117Z,17.27
2019-02-17T01:12:30.515Z,20.23
2019-02-17T01:14:58.926Z,18.30
2019-02-17T01:17:27.314Z,13.97
2019-02-17T01:19:55.802Z,19.23
2019-02-17T01:22:24.196Z,17.87
2019-02-17T01:24:52.587Z,18.67
2019-02-17T01:27:20.998Z,17.83
2019-02-17T01:29:49.542Z,16.20
2019-02-17T01:32:17.946Z,16.83
2019-02-17T01:34:46.345Z,14.20
2019-02-17T01:37:14.760Z,14.37
2019-02-17T01:39:46.230Z,16.20
2019-02-17T01:42:14.681Z,17.80
2019-02-17T01:44:43.087Z,16.57
2019-02-17T01:47:11.486Z,17.43
2019-02-17T01:49:39.890Z,14.53
2019-02-17T01:52:08.306Z,20.67
2019-02-17T01:54:36.717Z,14.83
2019-02-17T01:57:05.166Z,16.00
2019-02-17T01:59:33.918Z,18.67
2019-02-17T02:02:02.351Z,17.33
2019-02-17T02:04:30.742Z,15.80
2019-02-17T02:06:59.133Z,15.67
2019-02-17T02:09:27.542Z,17.23
2019-02-17T02:11:56.159Z,15.43
2019-02-17T02:14:24.614Z,17.33
2019-02-17T02:16:53.031Z,15.27
2019-02-17T02:19:21.458Z,12.87
2019-02-17T02:21:49.851Z,17.33
2019-02-17T02:24:18.249Z,21.13
2019-02-17T02:26:46.674Z,17.77
2019-02-17T02:29:15.098Z,14.43
2019-02-17T02:31:43.573Z,16.10
2019-02-17T02:34:11.999Z,16.27
2019-02-17T02:36:40.399Z,16.30
2019-02-17T02:39:08.802Z,18.73
2019-02-17T02:41:37.219Z,13.73
2019-02-17T02:44:05.619Z,16.83
2019-02-17T02:46:34.022Z,17.33
2019-02-17T02:49:02.440Z,17.87
2019-02-17T02:51:30.854Z,20.00
2019-02-17T02:53:59.262Z,17.60
2019-02-17T02:56:27.699Z,19.93
2019-02-17T02:58:56.098Z,25.13
2019-02-17T03:01:24.489Z,21.57
2019-02-17T03:03:52.909Z,19.00
2019-02-17T03:06:32.031Z,20.23
2019-02-17T03:09:00.466Z,18.53
2019-02-17T03:11:28.867Z,16.80
2019-02-17T03:13:57.268Z,15.93
2019-02-17T03:16:25.698Z,15.33
2019-02-17T03:18:54.094Z,18.10
2019-02-17T03:21:22.509Z,15.20
2019-02-17T03:23:50.960Z,15.73
2019-02-17T03:26:19.394Z,15.60
2019-02-17T03:28:47.862Z,15.53
2019-02-17T03:31:16.263Z,15.80
2019-02-17T03:33:44.688Z,15.67
2019-02-17T03:36:13.084Z,15.30
2019-02-17T03:38:41.503Z,18.20
2019-02-17T03:41:10.074Z,21.33
2019-02-17T03:43:38.818Z,15.10
2019-02-17T03:46:07.218Z,16.37
2019-02-17T03:48:35.631Z,16.50
2019-02-17T03:51:04.027Z,18.00
2019-02-17T03:53:32.475Z,19.67
2019-02-17T03:56:00.887Z,18.17
2019-02-17T03:58:29.394Z,16.70
2019-02-17T04:00:57.896Z,16.93
2019-02-17T04:03:26.639Z,15.57
2019-02-17T04:05:55.427Z,19.10
2019-02-17T04:08:23.819Z,16.50
2019-02-17T04:10:52.214Z,18.27
2019-02-17T04:13:20.639Z,18.03
2019-02-17T04:15:49.039Z,18.80
2019-02-17T04:18:17.442Z,17.43
2019-02-17T04:20:45.858Z,20.13
2019-02-17T04:23:14.278Z,16.93
2019-02-17T04:25:42.666Z,16.33
2019-02-17T04:28:11.087Z,16.53
2019-02-17T04:30:39.538Z,18.47
2019-02-17T04:33:07.934Z,16.47
2019-02-17T04:35:36.550Z,19.87
2019-02-17T04:38:04.949Z,21.43
2019-02-17T04:40:33.350Z,17.53
2019-02-17T04:43:02.004Z,20.20
2019-02-17T04:45:30.422Z,15.53
2019-02-17T04:47:59.020Z,16.43
2019-02-17T04:50:27.447Z,19.53
2019-02-17T04:52:55.878Z,20.23
2019-02-17T04:55:24.291Z,18.00
2019-02-17T04:57:52.724Z,24.47
2019-02-17T05:00:21.110Z,24.67
2019-02-17T05:02:49.514Z,25.03
2019-02-17T05:05:17.935Z,28.67
2019-02-17T05:07:46.349Z,28.43
2019-02-17T05:10:14.751Z,27.10
2019-02-17T05:12:43.168Z,28.17
2019-02-17T05:15:11.906Z,25.60
2019-02-17T05:17:40.572Z,24.90
2019-02-17T05:20:09.466Z,30.83
2019-02-17T05:22:39.396Z,29.67
2019-02-17T05:25:08.129Z,27.70
2019-02-17T05:27:36.534Z,25.33
2019-02-17T05:30:08.352Z,23.13
2019-02-17T05:32:36.746Z,19.70
2019-02-17T05:35:06.019Z,17.70
2019-02-17T05:37:34.415Z,17.33
2019-02-17T05:40:02.826Z,19.20
2019-02-17T05:42:31.290Z,19.57
2019-02-17T05:44:59.698Z,17.00
2019-02-17T05:47:28.123Z,13.73
2019-02-17T05:49:56.526Z,16.90
2019-02-17T05:52:24.926Z,15.67
2019-02-17T05:54:53.344Z,15.83
2019-02-17T05:57:21.754Z,16.93
2019-02-17T05:59:50.180Z,15.93
2019-02-17T06:02:18.590Z,17.40
2019-02-17T06:04:47.006Z,16.43
2019-02-17T06:07:15.419Z,19.93
2019-02-17T06:09:43.820Z,16.00
2019-02-17T06:12:12.233Z,17.70
2019-02-17T06:14:40.652Z,15.00
2019-02-17T06:17:09.058Z,16.80
2019-02-17T06:19:37.493Z,18.37
2019-02-17T06:22:05.890Z,16.47
2019-02-17T06:24:34.581Z,19.17
2019-02-17T06:27:02.984Z,19.57
2019-02-17T06:29:31.378Z,18.23
2019-02-17T06:31:59.790Z,17.17
2019-02-17T06:34:28.293Z,22.63
2019-02-17T06:36:56.706Z,16.50
2019-02-17T06:39:25.102Z,17.87
2019-02-17T06:41:53.543Z,18.47
2019-02-17T06:44:21.938Z,18.00
2019-02-17T06:46:52.038Z,18.50
2019-02-17T06:49:20.482Z,19.50
2019-02-17T06:51:48.878Z,20.27
2019-02-17T06:54:17.287Z,21.43
2019-02-17T06:56:47.339Z,22.37
2019-02-17T06:59:15.733Z,22.73
2019-02-17T07:01:44.147Z,23.73
2019-02-17T07:04:12.566Z,23.13
2019-02-17T07:06:42.850Z,31.13
2019-02-17T07:09:11.227Z,29.87
2019-02-17T07:11:39.706Z,35.03
2019-02-17T07:14:08.314Z,29.80
2019-02-17T07:16:36.716Z,28.17
2019-02-17T07:19:05.114Z,26.73
2019-02-17T07:21:33.534Z,25.13
2019-02-17T07:24:01.946Z,24.40
2019-02-17T07:26:30.358Z,26.13
2019-02-17T07:28:58.762Z,28.03
2019-02-17T07:31:34.573Z,22.50
2019-02-17T07:33:57.502Z,23.03
2019-02-17T07:36:25.995Z,22.67
2019-02-17T07:38:54.438Z,24.07
2019-02-17T07:41:22.843Z,21.77
2019-02-17T07:43:51.320Z,19.13
2019-02-17T07:46:19.711Z,21.43
2019-02-17T07:48:48.127Z,22.83
2019-02-17T07:51:16.531Z,21.10
2019-02-17T07:53:44.952Z,24.47
2019-02-17T07:56:13.354Z,21.83
2019-02-17T07:58:41.750Z,21.93
2019-02-17T08:01:10.157Z,22.33
2019-02-17T08:03:38.567Z,20.83
2019-02-17T08:06:06.982Z,22.50
2019-02-17T08:08:35.498Z,21.17
2019-02-17T08:11:04.484Z,22.10
2019-02-17T08:13:32.982Z,19.73
2019-02-17T08:16:01.398Z,22.20
2019-02-17T08:18:29.798Z,29.97
2019-02-17T08:20:58.212Z,22.93
2019-02-17T08:23:26.701Z,22.57
2019-02-17T08:25:55.132Z,19.97
2019-02-17T08:28:23.538Z,22.97
2019-02-17T08:30:51.954Z,22.47
2019-02-17T08:33:20.347Z,21.00
2019-02-17T08:35:48.769Z,15.70
2019-02-17T08:38:17.167Z,23.57
2019-02-17T08:40:45.565Z,20.77
2019-02-17T08:43:13.980Z,17.60
2019-02-17T08:45:42.378Z,22.53
2019-02-17T08:48:10.874Z,19.63
2019-02-17T08:50:39.289Z,16.93
2019-02-17T08:53:27.030Z,18.03
2019-02-17T08:55:55.425Z,16.63
2019-02-17T08:58:23.854Z,14.67
2019-02-17T09:00:52.246Z,14.47
2019-02-17T09:03:20.648Z,15.33
2019-02-17T09:05:49.062Z,20.53
2019-02-17T09:08:17.462Z,15.40
2019-02-17T09:10:45.857Z,13.97
2019-02-17T09:13:14.259Z,18.83
2019-02-17T09:15:42.674Z,18.40
2019-02-17T09:18:11.083Z,15.67
2019-02-17T09:20:39.479Z,14.13
2019-02-17T09:23:07.879Z,15.77
2019-02-17T09:25:36.282Z,15.00
2019-02-17T09:28:04.703Z,17.73
2019-02-17T09:30:33.174Z,14.37
2019-02-17T09:33:01.571Z,13.97
2019-02-17T09:35:29.973Z,13.60
2019-02-17T09:37:58.367Z,14.50
2019-02-17T09:40:26.802Z,12.40
2019-02-17T09:42:55.203Z,14.37
2019-02-17T09:45:23.593Z,13.63
2019-02-17T09:47:52.005Z,11.90
2019-02-17T09:50:20.700Z,15.23
2019-02-17T09:52:49.108Z,15.17
2019-02-17T09:55:17.495Z,12.03
2019-02-17T09:57:45.960Z,14.83
2019-02-17T10:00:15.598Z,14.03
2019-02-17T10:02:44.043Z,13.37
2019-02-17T10:05:13.618Z,19.53
2019-02-17T10:07:41.985Z,13.37
2019-02-17T10:10:15.318Z,12.30
2019-02-17T10:12:43.726Z,14.53
2019-02-17T10:15:13.508Z,13.50
2019-02-17T10:17:41.947Z,14.67
2019-02-17T10:20:12.289Z,14.17
2019-02-17T10:22:40.865Z,11.47
2019-02-17T10:25:10.087Z,17.37
2019-02-17T10:27:38.486Z,11.60
2019-02-17T10:30:15.059Z,9.63
2019-02-17T10:32:43.446Z,14.53
2019-02-17T10:35:12.085Z,12.30
2019-02-17T10:37:40.569Z,11.43
2019-02-17T10:40:14.703Z,12.13
2019-02-17T10:42:43.103Z,13.37
2019-02-17T10:45:12.071Z,12.77
2019-02-17T10:47:40.466Z,12.20
2019-02-17T10:50:14.943Z,13.00
2019-02-17T10:52:43.338Z,11.33
2019-02-17T10:55:13.170Z,10.63
2019-02-17T10:57:41.596Z,12.27
2019-02-17T11:00:15.296Z,10.27
2019-02-17T11:02:47.123Z,8.83
2019-02-17T11:05:14.077Z,10.77
2019-02-17T11:07:43.134Z,9.77
2019-02-17T11:10:12.566Z,11.10
2019-02-17T11:12:41.270Z,11.43
2019-02-17T11:15:20.269Z,13.10
2019-02-17T11:17:48.678Z,12.27
2019-02-17T11:20:17.081Z,11.43
2019-02-17T11:22:45.480Z,10.97
2019-02-17T11:25:13.946Z,10.93
2019-02-17T11:27:42.319Z,12.47
2019-02-17T11:30:16.703Z,12.00
2019-02-17T11:32:45.166Z,13.80
2019-02-17T11:35:13.744Z,12.63
2019-02-17T11:37:42.155Z,11.17
2019-02-17T11:40:12.097Z,13.57
2019-02-17T11:42:40.570Z,11.17
2019-02-17T11:45:17.215Z,11.23
2019-02-17T11:47:45.684Z,12.40
2019-02-17T11:50:15.837Z,14.60
2019-02-17T11:52:44.464Z,12.93
2019-02-17T11:55:14.587Z,13.87
2019-02-17T11:57:43.007Z,13.33
2019-02-17T12:00:14.406Z,13.40
2019-02-17T12:02:42.807Z,14.03
2019-02-17T12:05:11.740Z,12.17
2019-02-17T12:07:40.226Z,13.97
2019-02-17T12:10:10.779Z,16.17
2019-02-17T12:12:39.149Z,14.10
2019-02-17T12:15:10.521Z,12.30
2019-02-17T12:17:39.029Z,14.50
2019-02-17T12:20:13.899Z,14.30
2019-02-17T12:22:42.390Z,12.83
2019-02-17T12:25:10.793Z,11.77
2019-02-17T12:27:46.588Z,12.70
2019-02-17T12:30:15.385Z,13.00
2019-02-17T12:32:43.823Z,15.27
2019-02-17T12:35:12.264Z,11.37
2019-02-17T12:37:40.911Z,13.23
2019-02-17T12:40:10.652Z,11.83
2019-02-17T12:42:39.054Z,15.77
2019-02-17T12:45:10.505Z,13.53
2019-02-17T12:47:38.882Z,18.60
2019-02-17T12:50:10.121Z,14.17
2019-02-17T12:52:46.764Z,17.50
2019-02-17T12:55:08.745Z,13.40
2019-02-17T12:57:37.147Z,13.30
2019-02-17T13:00:09.089Z,15.97
2019-02-17T13:02:37.488Z,13.40
2019-02-17T13:05:07.756Z,16.13
2019-02-17T13:07:36.189Z,14.33
2019-02-17T13:10:05.972Z,13.60
2019-02-17T13:12:34.653Z,16.80
2019-02-17T13:15:03.366Z,15.00
2019-02-17T13:17:31.766Z,14.80
2019-02-17T13:20:00.551Z,15.93
2019-02-17T13:22:28.929Z,18.10
2019-02-17T13:24:57.335Z,13.10
2019-02-17T13:27:25.767Z,16.87
2019-02-17T13:29:54.271Z,15.70
2019-02-17T13:32:22.926Z,13.37
2019-02-17T13:34:51.361Z,12.70
2019-02-17T13:37:19.749Z,11.57
2019-02-17T13:39:48.167Z,13.13
2019-02-17T13:42:16.570Z,13.30
2019-02-17T13:44:44.985Z,13.00
2019-02-17T13:47:13.378Z,15.50
2019-02-17T13:49:41.806Z,13.57
2019-02-17T13:52:10.238Z,11.93
2019-02-17T13:54:38.645Z,13.87
2019-02-17T13:57:07.062Z,14.77
2019-02-17T13:59:35.474Z,14.33
2019-02-17T14:02:03.887Z,14.63
2019-02-17T14:04:32.311Z,14.70
2019-02-17T14:07:00.696Z,14.63
2019-02-17T14:09:29.131Z,13.43
2019-02-17T14:11:57.615Z,13.77
2019-02-17T14:14:26.023Z,15.13
2019-02-17T14:16:54.439Z,11.17
2019-02-17T14:19:22.846Z,14.00
2019-02-17T14:21:51.342Z,13.87
2019-02-17T14:24:19.745Z,11.97
2019-02-17T14:26:48.163Z,11.93
2019-02-17T14:29:16.563Z,11.20
2019-02-17T14:31:44.986Z,12.87
2019-02-17T14:34:13.383Z,7.20
2019-02-17T14:36:41.778Z,9.73
2019-02-17T14:39:10.403Z,7.97
2019-02-17T14:41:38.818Z,8.93
2019-02-17T14:44:07.231Z,10.40
2019-02-17T14:46:35.650Z,14.67
2019-02-17T14:49:04.046Z,11.80
2019-02-17T14:51:32.460Z,9.17
2019-02-17T14:54:00.876Z,11.00
2019-02-17T14:56:29.500Z,10.87
2019-02-17T14:58:58.043Z,8.70
2019-02-17T15:01:26.462Z,10.63
2019-02-17T15:03:54.866Z,11.63
2019-02-17T15:06:23.264Z,9.53
2019-02-17T15:08:51.674Z,12.73
2019-02-17T15:11:20.092Z,9.67
2019-02-17T15:13:48.506Z,9.20
2019-02-17T15:16:16.906Z,8.23
2019-02-17T15:18:47.342Z,7.90
2019-02-17T15:21:15.447Z,6.83
2019-02-17T15:23:43.841Z,7.10
2019-02-17T15:26:12.356Z,8.87
2019-02-17T15:28:50.344Z,8.73
2019-02-17T15:31:10.907Z,9.13
2019-02-17T15:33:39.304Z,8.47
2019-02-17T15:36:07.699Z,6.90
2019-02-17T15:38:36.200Z,8.27
2019-02-17T15:41:04.608Z,8.73
2019-02-17T15:43:33.022Z,7.97
2019-02-17T15:46:01.407Z,6.47
2019-02-17T15:48:29.821Z,6.37
2019-02-17T15:51:06.293Z,7.97
2019-02-17T15:53:28.356Z,10.47
2019-02-17T15:55:56.745Z,7.87
2019-02-17T15:58:25.162Z,8.73
2019-02-17T16:00:53.554Z,9.17
2019-02-17T16:03:21.963Z,9.60
2019-02-17T16:05:50.354Z,9.47
2019-02-17T16:08:18.774Z,9.43
2019-02-17T16:10:47.455Z,8.97
2019-02-17T16:13:15.855Z,8.60
2019-02-17T16:15:44.287Z,8.10
2019-02-17T16:18:12.674Z,10.30
2019-02-17T16:20:41.066Z,11.13
2019-02-17T16:23:09.781Z,10.43
2019-02-17T16:25:38.182Z,11.87
2019-02-17T16:28:06.578Z,12.40
2019-02-17T16:30:35.280Z,10.87
2019-02-17T16:33:03.747Z,10.27
2019-02-17T16:35:32.370Z,13.33
2019-02-17T16:38:00.794Z,16.70
2019-02-17T16:40:29.201Z,12.30
2019-02-17T16:42:57.590Z,13.03
2019-02-17T16:45:25.998Z,13.33
2019-02-17T16:47:54.414Z,10.70
2019-02-17T16:50:27.974Z,13.33
2019-02-17T16:52:56.579Z,9.67
2019-02-17T16:55:25.043Z,9.47
2019-02-17T16:57:53.438Z,8.57
2019-02-17T17:00:24.422Z,14.17
2019-02-17T17:02:53.667Z,12.77
2019-02-17T17:05:23.021Z,12.90
2019-02-17T17:07:51.793Z,13.03
2019-02-17T17:10:20.331Z,13.10
2019-02-17T17:12:49.162Z,15.53
2019-02-17T17:15:17.770Z,13.80
2019-02-17T17:17:46.241Z,10.73
2019-02-17T17:20:16.723Z,16.30
2019-02-17T17:22:45.166Z,13.60
2019-02-17T17:25:13.999Z,11.70
2019-02-17T17:27:42.458Z,12.53
2019-02-17T17:30:18.689Z,19.07
2019-02-17T17:32:47.188Z,19.93
2019-02-17T17:35:15.648Z,20.23
2019-02-17T17:37:44.059Z,20.70
2019-02-17T17:40:18.847Z,21.40
2019-02-17T17:42:47.481Z,24.67
2019-02-17T17:45:20.806Z,19.50
2019-02-17T17:47:49.232Z,24.10
2019-02-17T17:50:17.830Z,22.10
2019-02-17T17:52:46.243Z,21.27
2019-02-17T17:55:14.719Z,24.13
2019-02-17T17:57:43.140Z,22.27
2019-02-17T18:00:17.442Z,24.50
2019-02-17T18:02:45.882Z,17.70
2019-02-17T18:05:14.810Z,24.87
2019-02-17T18:07:43.226Z,23.53
2019-02-17T18:10:13.825Z,20.63
2019-02-17T18:12:42.233Z,22.17
2019-02-17T18:15:14.723Z,21.10
2019-02-17T18:17:53.265Z,22.83
2019-02-17T18:20:13.804Z,19.20
2019-02-17T18:22:42.214Z,23.83
2019-02-17T18:25:14.054Z,21.47
2019-02-17T18:27:42.543Z,20.00
2019-02-17T18:30:16.859Z,18.50
2019-02-17T18:32:45.295Z,21.53
2019-02-17T18:35:19.815Z,22.63
2019-02-17T18:37:44.107Z,19.70
2019-02-17T18:40:14.262Z,22.30
2019-02-17T18:42:43.351Z,21.60
2019-02-17T18:45:15.585Z,21.00
2019-02-17T18:47:44.022Z,20.60
2019-02-17T18:50:13.858Z,23.50
2019-02-17T18:52:42.254Z,21.77
2019-02-17T18:55:14.162Z,23.33
2019-02-17T18:57:50.165Z,22.53
2019-02-17T19:00:21.208Z,24.30
2019-02-17T19:02:49.630Z,22.47
2019-02-17T19:05:20.159Z,27.03
2019-02-17T19:07:48.454Z,22.23
2019-02-17T19:10:16.946Z,27.23
2019-02-17T19:12:45.369Z,27.13
2019-02-17T19:15:15.204Z,24.03
2019-02-17T19:17:43.626Z,24.83
2019-02-17T19:20:20.861Z,22.40
2019-02-17T19:22:49.274Z,23.70
2019-02-17T19:25:17.674Z,26.13
2019-02-17T19:27:46.133Z,25.87
2019-02-17T19:30:15.724Z,24.10
2019-02-17T19:32:44.418Z,27.80
2019-02-17T19:35:16.299Z,24.73
2019-02-17T19:37:44.726Z,21.73
2019-02-17T19:40:14.402Z,27.33
2019-02-17T19:42:43.083Z,24.50
2019-02-17T19:45:16.254Z,30.33
2019-02-17T19:47:44.667Z,23.53
2019-02-17T19:50:14.228Z,24.80
2019-02-17T19:52:42.714Z,23.63
2019-02-17T19:55:12.167Z,25.07
2019-02-17T19:57:40.709Z,25.87
2019-02-17T20:00:12.263Z,26.63
2019-02-17T20:02:57.492Z,27.87
2019-02-17T20:05:27.547Z,27.03
2019-02-17T20:07:55.948Z,26.93
2019-02-17T20:10:24.462Z,33.23
2019-02-17T20:12:52.878Z,25.13
2019-02-17T20:15:23.166Z,21.83
2019-02-17T20:17:51.582Z,18.63
2019-02-17T20:20:19.983Z,24.20
2019-02-17T20:22:48.383Z,23.43
2019-02-17T20:25:16.779Z,21.63
2019-02-17T20:27:45.318Z,24.83
2019-02-17T20:30:14.679Z,18.53
2019-02-17T20:32:43.088Z,22.70
2019-02-17T20:35:11.500Z,22.07
2019-02-17T20:37:40.258Z,22.10
2019-02-17T20:40:11.298Z,21.27
2019-02-17T20:42:39.762Z,21.03
2019-02-17T20:45:09.914Z,24.03
2019-02-17T20:47:38.314Z,21.37
2019-02-17T20:50:15.283Z,22.53
2019-02-17T20:52:44.664Z,22.67
2019-02-17T20:55:13.800Z,27.67
2019-02-17T20:57:42.209Z,22.10
2019-02-17T21:00:14.947Z,20.17
2019-02-17T21:02:43.351Z,24.87
2019-02-17T21:05:11.894Z,23.10
2019-02-17T21:07:40.299Z,19.83
2019-02-17T21:10:14.110Z,28.40
2019-02-17T21:12:42.571Z,24.07
2019-02-17T21:15:12.699Z,24.33
2019-02-17T21:17:41.190Z,27.13
2019-02-17T21:20:10.338Z,26.97
2019-02-17T21:22:38.752Z,25.53
2019-02-17T21:25:11.442Z,27.10
2019-02-17T21:27:39.843Z,29.13
2019-02-17T21:30:18.629Z,29.67
2019-02-17T21:32:47.498Z,26.37
2019-02-17T21:35:18.863Z,21.47
2019-02-17T21:37:47.951Z,23.60
2019-02-17T21:40:16.418Z,23.30
2019-02-17T21:42:44.818Z,20.53
2019-02-17T21:45:15.337Z,16.43
2019-02-17T21:47:43.740Z,17.10
2019-02-17T21:50:13.078Z,17.47
2019-02-17T21:52:42.150Z,13.80
2019-02-17T21:55:13.083Z,13.67
2019-02-17T21:57:41.566Z,13.57
2019-02-17T22:00:20.816Z,13.10
2019-02-17T22:02:49.223Z,15.07
2019-02-17T22:05:17.718Z,14.10
2019-02-17T22:07:46.294Z,14.40
2019-02-17T22:10:16.234Z,13.17
2019-02-17T22:12:44.666Z,11.53
2019-02-17T22:15:15.669Z,11.13
2019-02-17T22:17:44.083Z,13.00
2019-02-17T22:20:12.914Z,12.13
2019-02-17T22:22:41.397Z,15.00
2019-02-17T22:25:10.639Z,10.37
2019-02-17T22:27:39.054Z,10.93
2019-02-17T22:30:12.146Z,9.97
2019-02-17T22:32:41.442Z,10.77
2019-02-17T22:35:09.994Z,11.67
2019-02-17T22:37:38.401Z,10.13
2019-02-17T22:40:09.650Z,10.87
2019-02-17T22:42:38.051Z,11.80
2019-02-17T22:45:11.191Z,9.50
2019-02-17T22:47:39.630Z,7.63
2019-02-17T22:50:10.338Z,11.80
2019-02-17T22:52:38.746Z,7.87
2019-02-17T22:55:09.694Z,7.83
2019-02-17T22:57:38.086Z,9.47
2019-02-17T23:00:12.454Z,12.13
2019-02-17T23:02:40.883Z,10.73
2019-02-17T23:05:09.533Z,9.17
2019-02-17T23:07:37.918Z,9.53
2019-02-17T23:10:08.971Z,7.80
2019-02-17T23:12:37.366Z,6.97
2019-02-17T23:15:07.403Z,7.33
2019-02-17T23:17:35.822Z,11.40
2019-02-17T23:20:05.851Z,9.07
2019-02-17T23:22:34.245Z,10.47
2019-02-17T23:25:03.695Z,7.13
2019-02-17T23:27:32.104Z,8.80
2019-02-17T23:30:00.524Z,9.87
2019-02-17T23:32:28.942Z,10.13
2019-02-17T23:34:57.349Z,9.17
2019-02-17T23:37:25.744Z,10.30
2019-02-17T23:39:54.142Z,10.53
2019-02-17T23:42:22.573Z,10.17
2019-02-17T23:44:50.958Z,9.17
2019-02-17T23:47:19.373Z,11.40
2019-02-17T23:49:47.805Z,11.27
2019-02-17T23:52:16.206Z,10.97
2019-02-17T23:54:44.614Z,12.23
2019-02-17T23:57:13.061Z,9.63
2019-02-17T23:59:41.668Z,10.87
